Time;durP1;ratioP1;P1;durP2;ratioP2;P2;SDS_P1;SDS_P2;PMS_P1;PMS_P2;Temp;Humidity;BMP_temperature;BMP_pressure;BME280_temperature;BME280_humidity;BME280_pressure;Samples;Min_cycle;Max_cycle;Signal;HPM_P1;HPM_P2
2022/01/28 00:01:00;;;;;;;4.87;3.37;;;;;;;3.74;100.00;101195.22;4996843;28;20228;-63
2022/01/28 00:03:25;;;;;;;4.40;3.23;;;;;;;3.79;100.00;101195.19;5009466;28;20174;-63
2022/01/28 00:05:51;;;;;;;6.77;4.17;;;;;;;3.99;100.00;101189.91;5010747;28;20328;-63
2022/01/28 00:08:16;;;;;;;3.97;3.47;;;;;;;3.88;100.00;101192.53;5010994;28;20543;-64
2022/01/28 00:10:41;;;;;;;5.63;3.67;;;;;;;3.89;100.00;101196.78;5005342;28;20217;-63
2022/01/28 00:38:03;;;;;;;3.63;2.70;;;;;;;4.06;99.86;101208.50;4989850;28;20194;-62
2022/01/28 00:40:31;;;;;;;4.40;3.03;;;;;;;4.04;99.99;101208.50;4982124;28;20233;-63
2022/01/28 00:42:56;;;;;;;3.37;2.77;;;;;;;4.20;98.77;101207.53;5001793;28;20651;-61
2022/01/28 00:45:22;;;;;;;5.27;2.80;;;;;;;4.08;97.36;101211.88;4990752;28;20285;-63
2022/01/28 00:47:47;;;;;;;3.53;3.23;;;;;;;4.15;97.73;101218.59;4990681;28;20194;-61
2022/01/28 00:50:14;;;;;;;5.30;2.77;;;;;;;4.13;97.67;101218.63;4981837;28;20176;-62
2022/01/28 00:52:39;;;;;;;5.50;2.77;;;;;;;3.96;97.92;101218.78;4998908;28;20180;-62
2022/01/28 00:55:05;;;;;;;5.13;2.97;;;;;;;4.00;98.35;101211.97;4979851;28;20606;-62
2022/01/28 00:57:30;;;;;;;3.47;3.10;;;;;;;4.02;98.46;101215.34;4990747;28;20181;-61
2022/01/28 00:59:56;;;;;;;3.70;2.97;;;;;;;3.93;98.26;101221.38;4989816;28;20282;-63
2022/01/28 01:02:21;;;;;;;5.87;3.23;;;;;;;3.82;98.33;101226.53;4995728;28;20301;-62
2022/01/28 01:04:46;;;;;;;3.00;2.70;;;;;;;3.85;98.00;101246.84;4989907;28;20219;-62
2022/01/28 01:07:12;;;;;;;4.13;2.80;;;;;;;3.78;98.45;101239.28;4989998;28;20724;-63
2022/01/28 01:09:37;;;;;;;3.77;2.57;;;;;;;3.58;98.73;101253.00;4990700;28;20191;-63
2022/01/28 01:12:03;;;;;;;5.07;2.80;;;;;;;3.63;99.29;101265.69;4995266;28;20225;-63
2022/01/28 01:14:29;;;;;;;5.83;3.67;;;;;;;3.38;100.00;101276.88;4990221;28;20592;-62
2022/01/28 01:19:25;;;;;;;4.23;2.77;;;;;;;3.14;100.00;101282.94;4990285;28;20195;-61
2022/01/28 01:21:55;;;;;;;4.13;3.00;;;;;;;3.14;100.00;101290.56;4982240;28;20310;-62
2022/01/28 01:24:23;;;;;;;5.00;3.20;;;;;;;3.05;100.00;101300.75;4987127;28;20180;-62
2022/01/28 01:26:49;;;;;;;5.10;2.80;;;;;;;3.12;100.00;101304.97;4996942;28;20201;-62
2022/01/28 01:29:18;;;;;;;6.30;2.60;;;;;;;3.19;100.00;101316.81;5000050;28;20179;-62
2022/01/28 01:31:43;;;;;;;4.60;3.00;;;;;;;3.23;100.00;101320.19;4993144;28;20221;-62
2022/01/28 01:34:19;;;;;;;5.03;2.60;;;;;;;3.28;100.00;101317.63;4991818;28;20706;-62
2022/01/28 01:36:45;;;;;;;4.80;2.73;;;;;;;3.36;100.00;101308.25;4989710;28;20214;-62
2022/01/28 01:39:16;;;;;;;5.67;2.80;;;;;;;3.33;100.00;101309.13;4990135;28;20194;-62
2022/01/28 01:41:51;;;;;;;4.93;2.90;;;;;;;3.48;100.00;101320.06;4992526;28;20718;-62
2022/01/28 01:45:39;;;;;;;4.40;2.37;;;;;;;3.48;100.00;101315.81;4991139;28;20183;-62
2022/01/28 01:52:51;;;;;;;3.77;2.50;;;;;;;3.44;100.00;101326.88;4981055;28;20332;-60
2022/01/28 01:55:16;;;;;;;6.20;2.50;;;;;;;3.38;100.00;101343.00;4992914;28;20656;-60
2022/01/28 01:57:44;;;;;;;5.23;2.33;;;;;;;3.28;100.00;101335.44;5006877;28;20704;-61
2022/01/28 02:00:10;;;;;;;3.20;2.03;;;;;;;3.33;100.00;101336.25;4994602;28;20208;-61
2022/01/28 02:02:35;;;;;;;4.03;2.07;;;;;;;3.32;100.00;101343.03;5008147;28;20663;-61
2022/01/28 02:05:00;;;;;;;4.23;2.93;;;;;;;3.36;100.00;101333.69;4996654;28;20259;-61
2022/01/28 02:07:26;;;;;;;4.27;2.43;;;;;;;3.26;100.00;101329.50;4993224;28;20206;-61
2022/01/28 02:09:52;;;;;;;4.63;2.23;;;;;;;3.25;100.00;101326.13;4992861;28;20211;-61
2022/01/28 02:12:17;;;;;;;3.60;2.40;;;;;;;3.12;100.00;101334.66;4998639;28;20276;-61
2022/01/28 02:14:42;;;;;;;8.73;2.50;;;;;;;3.05;100.00;101342.31;5007823;28;20202;-62
2022/01/28 02:17:08;;;;;;;6.70;2.30;;;;;;;2.86;100.00;101344.03;5008210;28;20234;-62
2022/01/28 02:19:35;;;;;;;8.03;2.30;;;;;;;2.81;100.00;101344.91;4993067;28;20585;-62
2022/01/28 02:22:00;;;;;;;3.80;2.40;;;;;;;2.76;100.00;101351.72;4992580;28;20284;-62
2022/01/28 02:24:32;;;;;;;3.33;2.00;;;;;;;2.80;100.00;101338.13;5012251;28;20175;-62
2022/01/28 02:26:58;;;;;;;5.17;2.20;;;;;;;2.96;100.00;101349.09;5014318;28;20205;-61
2022/01/28 02:29:32;;;;;;;5.80;2.20;;;;;;;2.91;100.00;101346.56;5020651;28;20186;-62
2022/01/28 02:31:59;;;;;;;2.93;1.60;;;;;;;2.78;100.00;101342.38;5004804;28;20232;-62
2022/01/28 02:34:25;;;;;;;3.17;1.50;;;;;;;2.64;100.00;101348.34;5012549;28;20182;-62
2022/01/28 02:36:50;;;;;;;4.23;2.00;;;;;;;2.73;100.00;101343.22;5012045;28;20346;-60
2022/01/28 02:39:15;;;;;;;6.53;2.03;;;;;;;2.92;100.00;101344.91;5012002;28;20206;-62
2022/01/28 02:41:45;;;;;;;3.13;2.17;;;;;;;2.94;100.00;101346.59;5014397;28;20259;-61
2022/01/28 02:44:40;;;;;;;7.43;2.40;;;;;;;2.80;100.00;101343.22;5013806;28;20177;-61
2022/01/28 02:47:08;;;;;;;4.17;2.20;;;;;;;2.77;100.00;101341.53;5011779;28;20212;-62
2022/01/28 02:49:36;;;;;;;4.73;2.23;;;;;;;2.74;100.00;101344.94;5012021;28;20182;-61
2022/01/28 02:52:03;;;;;;;7.60;2.10;;;;;;;2.76;100.00;101342.38;5016887;28;20221;-61
2022/01/28 02:54:29;;;;;;;5.90;2.00;;;;;;;2.96;100.00;101351.66;5011605;28;20597;-62
2022/01/28 02:57:02;;;;;;;2.33;1.97;;;;;;;3.00;100.00;101351.66;5012252;28;20534;-61
2022/01/28 02:59:27;;;;;;;2.67;1.93;;;;;;;3.14;100.00;101360.91;5011774;28;20201;-61
2022/01/28 03:01:52;;;;;;;12.07;2.33;;;;;;;3.20;100.00;101356.66;5007010;28;20235;-60
2022/01/28 03:06:55;;;;;;;11.33;2.50;;;;;;;3.04;100.00;101366.03;5011499;28;20204;-62
2022/01/28 03:09:21;;;;;;;7.43;2.47;;;;;;;2.97;100.00;101376.22;5011134;28;20192;-61
2022/01/28 03:12:00;;;;;;;6.90;2.17;;;;;;;3.04;100.00;101363.50;5014301;28;20298;-61
2022/01/28 03:14:54;;;;;;;4.13;2.20;;;;;;;3.00;100.00;101374.53;5019979;28;20189;-64
2022/01/28 03:22:46;;;;;;;6.37;2.30;;;;;;;3.29;100.00;101393.09;4971193;28;20230;-61
2022/01/28 03:25:11;;;;;;;6.37;2.40;;;;;;;3.41;100.00;101402.34;5001937;28;20191;-61
2022/01/28 03:30:11;;;;;;;8.40;2.47;;;;;;;3.40;100.00;101396.44;4992300;28;20598;-61
2022/01/28 03:32:37;;;;;;;8.73;2.83;;;;;;;3.45;100.00;101398.94;5009702;28;20193;-62
2022/01/28 03:35:04;;;;;;;6.67;2.10;;;;;;;3.41;100.00;101394.72;5018020;28;20179;-61
2022/01/28 03:37:30;;;;;;;12.80;3.03;;;;;;;3.58;100.00;101399.75;5028256;28;20209;-61
2022/01/28 03:39:55;;;;;;;10.20;2.20;;;;;;;3.44;99.65;101398.09;5022240;28;20646;-61
2022/01/28 03:42:20;;;;;;;8.47;2.50;;;;;;;3.51;98.72;101397.22;5001998;28;20241;-61
2022/01/28 03:44:46;;;;;;;9.20;2.50;;;;;;;3.46;97.72;101414.22;4997386;28;20253;-61
2022/01/28 03:47:11;;;;;;;5.90;2.03;;;;;;;3.43;98.18;101418.47;4991480;28;20289;-61
2022/01/28 03:49:36;;;;;;;8.53;2.13;;;;;;;3.43;98.74;101432.03;5002486;28;20175;-61
2022/01/28 03:52:02;;;;;;;11.17;2.10;;;;;;;3.42;98.72;101437.13;5006316;28;20243;-60
2022/01/28 03:54:27;;;;;;;11.37;2.33;;;;;;;3.46;99.12;101433.69;5009953;28;20206;-61
2022/01/28 03:56:52;;;;;;;6.23;2.20;;;;;;;3.36;99.06;101433.75;4991441;28;20253;-62
2022/01/28 03:59:18;;;;;;;8.43;2.50;;;;;;;3.24;99.15;101438.88;4997616;28;20191;-60
2022/01/28 04:01:45;;;;;;;10.20;2.60;;;;;;;3.07;99.27;101443.97;4992355;28;20305;-61
2022/01/28 04:12:24;;;;;;;10.30;2.70;;;;;;;2.99;98.14;101466.03;4995848;28;20236;-62
2022/01/28 04:15:07;;;;;;;10.47;2.40;;;;;;;2.92;97.89;101462.66;4997179;28;20201;-60
2022/01/28 04:17:32;;;;;;;10.37;3.23;;;;;;;3.02;96.76;101466.88;4953470;28;20215;-60
2022/01/28 04:19:58;;;;;;;13.50;3.27;;;;;;;3.01;96.08;101466.88;4988019;28;20205;-61
2022/01/28 04:22:24;;;;;;;14.07;2.67;;;;;;;2.95;95.67;101465.19;5004151;28;20742;-60
2022/01/28 04:24:50;;;;;;;10.30;2.37;;;;;;;3.00;95.23;101468.59;4999455;28;20305;-61
2022/01/28 04:27:16;;;;;;;10.07;2.70;;;;;;;2.84;95.13;101464.34;4996746;28;20310;-60
2022/01/28 04:29:41;;;;;;;9.37;2.80;;;;;;;2.77;95.46;101466.06;4990892;28;20247;-61
2022/01/28 04:32:07;;;;;;;12.10;2.83;;;;;;;2.79;95.83;101468.59;4968880;28;20320;-60
2022/01/28 04:34:33;;;;;;;16.53;2.93;;;;;;;2.74;96.20;101468.56;4987076;28;20193;-61
2022/01/28 04:37:26;;;;;;;7.27;2.43;;;;;;;2.70;96.04;101479.59;4990560;28;20210;-60
2022/01/28 04:47:39;;;;;;;14.57;2.73;;;;;;;2.84;93.94;101487.22;4990860;28;20520;-62
2022/01/28 04:57:51;;;;;;;11.33;2.90;;;;;;;3.09;91.79;101495.69;4990427;28;20189;-62
2022/01/28 05:00:39;;;;;;;11.97;2.50;;;;;;;3.16;91.14;101502.47;4977622;28;20332;-62
2022/01/28 05:16:59;;;;;;;8.87;2.43;;;;;;;3.19;91.56;101532.97;4975875;28;20350;-62
2022/01/28 05:27:11;;;;;;;5.80;1.97;;;;;;;3.39;91.61;101532.94;4987731;28;20225;-61
2022/01/28 05:29:39;;;;;;;14.50;3.47;;;;;;;3.37;91.16;101533.78;4991346;28;20730;-62
2022/01/28 05:32:08;;;;;;;13.57;2.70;;;;;;;3.53;90.94;101535.44;4997194;28;20230;-62
2022/01/28 05:34:34;;;;;;;12.80;2.70;;;;;;;3.63;90.76;101543.06;5000715;28;20611;-61
2022/01/28 05:36:59;;;;;;;7.70;2.33;;;;;;;3.70;90.21;101532.84;4996597;28;20199;-62
2022/01/28 05:39:24;;;;;;;10.47;2.53;;;;;;;3.67;89.72;101544.75;4993590;28;20214;-61
2022/01/28 05:41:50;;;;;;;9.90;2.80;;;;;;;3.69;89.18;101523.53;4997513;28;20256;-61
2022/01/28 05:44:15;;;;;;;8.57;2.20;;;;;;;3.56;89.97;101529.53;4995053;28;20210;-61
2022/01/28 05:46:41;;;;;;;8.77;2.60;;;;;;;3.62;89.77;101536.28;4993992;28;20568;-62
2022/01/28 05:49:07;;;;;;;10.00;1.90;;;;;;;3.74;89.36;101540.50;4993017;28;20175;-62
2022/01/28 05:51:32;;;;;;;7.50;2.23;;;;;;;3.74;89.33;101554.06;4994287;28;20221;-62
2022/01/28 05:53:58;;;;;;;7.37;2.60;;;;;;;3.71;88.88;101552.38;4996790;28;20183;-62
2022/01/28 05:56:26;;;;;;;7.77;2.43;;;;;;;3.63;88.67;101549.00;4993763;28;20237;-61
2022/01/28 05:58:53;;;;;;;9.73;2.83;;;;;;;3.44;88.37;101553.28;4993849;28;20225;-61
2022/01/28 06:01:18;;;;;;;6.13;1.77;;;;;;;3.32;89.15;101555.84;4992918;28;20561;-62
2022/01/28 06:03:44;;;;;;;7.50;2.20;;;;;;;3.21;89.76;101551.63;4998583;28;20179;-61
2022/01/28 06:06:18;;;;;;;11.97;3.10;;;;;;;3.20;89.88;101561.78;4993532;28;20205;-62
2022/01/28 06:08:44;;;;;;;9.80;2.30;;;;;;;3.37;90.05;101559.22;4993549;28;20207;-61
2022/01/28 06:11:09;;;;;;;6.17;2.00;;;;;;;3.30;89.43;101562.63;4991536;28;20230;-62
2022/01/28 06:13:34;;;;;;;8.43;2.80;;;;;;;3.37;88.56;101562.63;4999562;28;20730;-62
2022/01/28 06:16:00;;;;;;;11.37;2.90;;;;;;;3.51;88.74;101561.75;4993309;28;20257;-61
2022/01/28 06:18:25;;;;;;;10.67;2.33;;;;;;;3.68;87.55;101574.44;4992877;28;20636;-64
2022/01/28 06:20:50;;;;;;;7.57;2.50;;;;;;;3.50;87.36;101580.44;4987436;28;20242;-62
2022/01/28 06:23:16;;;;;;;10.93;2.50;;;;;;;3.48;88.22;101562.59;5002000;28;20239;-61
2022/01/28 06:25:43;;;;;;;10.67;2.90;;;;;;;3.62;88.67;101579.53;4992685;28;20191;-61
2022/01/28 06:28:08;;;;;;;9.40;3.03;;;;;;;3.59;88.20;101571.94;4992444;28;21012;-61
2022/01/28 06:30:33;;;;;;;12.53;2.40;;;;;;;3.62;87.67;101587.19;4986178;28;20226;-62
2022/01/28 06:32:59;;;;;;;11.83;3.23;;;;;;;3.62;87.46;101584.63;4999269;28;20342;-62
2022/01/28 06:35:24;;;;;;;9.67;2.40;;;;;;;3.69;87.25;101592.25;4990452;28;20190;-62
2022/01/28 06:37:50;;;;;;;11.07;2.80;;;;;;;3.61;86.52;101590.56;4993048;28;20185;-62
2022/01/28 06:40:17;;;;;;;10.30;2.30;;;;;;;3.61;86.91;101595.66;4990923;28;20207;-62
2022/01/28 06:42:43;;;;;;;13.17;2.77;;;;;;;3.63;87.02;101588.88;5007789;28;20201;-62
2022/01/28 06:45:09;;;;;;;11.53;2.90;;;;;;;3.68;86.50;101589.72;4995609;28;20186;-62
2022/01/28 06:47:35;;;;;;;6.97;2.60;;;;;;;3.65;86.57;101597.38;4995483;28;20195;-63
2022/01/28 06:50:02;;;;;;;9.70;2.30;;;;;;;3.56;87.47;101605.88;4996879;28;20244;-62
2022/01/28 06:52:28;;;;;;;9.37;2.30;;;;;;;3.62;87.73;101610.06;4985348;28;20215;-62
2022/01/28 06:54:53;;;;;;;7.70;2.07;;;;;;;3.61;87.27;101624.50;4986810;28;20221;-62
2022/01/28 06:57:18;;;;;;;5.37;2.13;;;;;;;3.74;87.31;101616.84;4998923;28;20198;-62
2022/01/28 06:59:44;;;;;;;7.77;2.00;;;;;;;3.76;86.71;101623.63;4996940;28;20408;-62
2022/01/28 07:02:09;;;;;;;11.97;2.67;;;;;;;3.70;86.55;101626.19;5000183;28;20215;-62
2022/01/28 07:04:35;;;;;;;10.30;2.30;;;;;;;3.63;86.31;101647.41;4996254;28;20183;-62
2022/01/28 07:07:00;;;;;;;11.87;3.00;;;;;;;3.70;87.16;101655.03;4994359;28;20202;-63
2022/01/28 07:09:26;;;;;;;11.63;3.07;;;;;;;3.69;87.38;101639.75;4992733;28;20651;-62
2022/01/28 07:11:51;;;;;;;6.53;2.20;;;;;;;3.81;86.91;101644.00;4992191;28;20234;-62
2022/01/28 07:14:17;;;;;;;16.03;2.93;;;;;;;3.92;86.43;101644.81;4992680;28;20233;-62
2022/01/28 07:16:42;;;;;;;9.90;2.07;;;;;;;3.91;86.08;101649.91;4992490;28;20210;-61
2022/01/28 07:19:09;;;;;;;11.37;2.50;;;;;;;3.92;85.76;101643.97;4993789;28;20199;-62
2022/01/28 07:21:34;;;;;;;9.87;2.67;;;;;;;4.00;85.71;101652.44;4993524;28;20229;-61
2022/01/28 07:24:00;;;;;;;8.87;2.63;;;;;;;4.08;85.33;101653.28;4995138;28;20557;-62
2022/01/28 07:26:25;;;;;;;9.13;2.30;;;;;;;4.06;85.66;101649.88;4991564;28;20207;-62
2022/01/28 07:28:52;;;;;;;8.33;2.13;;;;;;;4.03;86.26;101662.59;4991040;28;20598;-62
2022/01/28 07:31:18;;;;;;;9.87;2.83;;;;;;;4.08;85.99;101662.59;4987971;28;20354;-61
2022/01/28 07:33:44;;;;;;;11.30;2.53;;;;;;;4.20;85.44;101658.34;4995335;28;20656;-62
2022/01/28 07:36:09;;;;;;;9.40;2.37;;;;;;;4.18;84.78;101661.72;4991307;28;20209;-63
2022/01/28 07:38:35;;;;;;;9.50;1.90;;;;;;;4.35;84.37;101661.66;4994896;28;20274;-62
2022/01/28 07:41:01;;;;;;;9.87;2.43;;;;;;;4.42;83.69;101670.16;4995508;28;20222;-62
2022/01/28 07:43:27;;;;;;;7.67;2.07;;;;;;;4.51;83.92;101670.97;5000366;28;20202;-62
2022/01/28 07:45:53;;;;;;;11.73;2.57;;;;;;;4.53;83.60;101679.44;4991600;28;20195;-62
2022/01/28 07:48:18;;;;;;;10.93;2.53;;;;;;;4.45;83.38;101675.22;4992698;28;20330;-62
2022/01/28 07:50:44;;;;;;;11.77;2.40;;;;;;;4.38;84.01;101682.06;4994296;28;20332;-62
2022/01/28 07:53:13;;;;;;;11.60;2.97;;;;;;;4.39;83.88;101686.31;5008732;28;20194;-63
2022/01/28 07:55:39;;;;;;;12.13;2.87;;;;;;;4.35;84.05;101685.47;4991439;28;20719;-63
2022/01/28 07:58:04;;;;;;;9.50;2.90;;;;;;;4.38;84.38;101687.16;5003966;28;20301;-62
2022/01/28 08:00:29;;;;;;;10.93;2.37;;;;;;;4.48;83.65;101691.34;4974748;28;20234;-61
2022/01/28 08:02:54;;;;;;;11.63;2.60;;;;;;;4.50;83.93;101691.34;5002275;28;20184;-62
2022/01/28 08:05:20;;;;;;;12.50;2.93;;;;;;;4.42;83.67;101695.63;4990766;28;20268;-62
2022/01/28 08:07:46;;;;;;;4.77;2.07;;;;;;;4.47;83.42;101692.19;4990582;28;20280;-62
2022/01/28 08:10:16;;;;;;;8.60;2.30;;;;;;;4.51;83.59;101695.59;4979370;28;20183;-63
2022/01/28 08:12:50;;;;;;;11.87;2.80;;;;;;;4.43;83.93;101699.84;4999938;28;20234;-62
2022/01/28 08:15:17;;;;;;;14.63;2.50;;;;;;;4.46;83.66;101704.97;4996113;28;20193;-63
2022/01/28 08:17:43;;;;;;;11.17;3.13;;;;;;;4.43;84.52;101704.94;5008829;28;20175;-62
2022/01/28 08:20:09;;;;;;;12.13;4.20;;;;;;;4.59;84.78;101715.94;5001562;28;20627;-63
2022/01/28 08:22:49;;;;;;;8.03;2.67;;;;;;;4.43;85.26;101725.34;5005354;28;20262;-63
2022/01/28 08:25:16;;;;;;;9.33;2.83;;;;;;;4.63;85.26;101721.03;5008937;28;20735;-63
2022/01/28 08:27:43;;;;;;;6.87;2.47;;;;;;;4.71;85.42;101730.34;5012423;28;20301;-62
2022/01/28 08:30:09;;;;;;;9.03;2.97;;;;;;;4.66;86.00;101736.34;4989994;28;20195;-62
2022/01/28 08:32:34;;;;;;;9.20;3.00;;;;;;;4.76;85.86;101742.22;5007909;28;20588;-62
2022/01/28 08:34:59;;;;;;;8.57;2.50;;;;;;;4.71;86.10;101743.09;4991705;28;20187;-63
2022/01/28 08:37:24;;;;;;;12.90;3.53;;;;;;;4.63;87.09;101743.97;5007355;28;20202;-63
2022/01/28 08:39:50;;;;;;;7.97;2.47;;;;;;;4.70;86.52;101754.97;5014540;28;20199;-62
2022/01/28 08:42:16;;;;;;;11.70;3.00;;;;;;;4.66;86.62;101756.72;5002410;28;20227;-62
2022/01/28 08:44:42;;;;;;;15.20;2.83;;;;;;;4.90;85.90;101751.50;5009737;28;20179;-62
2022/01/28 08:47:07;;;;;;;11.50;2.70;;;;;;;4.83;85.74;101758.34;5002538;28;20270;-62
2022/01/28 08:49:32;;;;;;;9.33;2.40;;;;;;;4.87;84.65;101751.53;4983556;28;20205;-63
2022/01/28 08:51:58;;;;;;;12.03;3.03;;;;;;;4.83;84.30;101755.81;4969725;28;20319;-63
2022/01/28 08:54:23;;;;;;;24.93;3.17;;;;;;;4.78;84.07;101758.38;4989895;28;20179;-62
2022/01/28 08:56:49;;;;;;;10.53;2.43;;;;;;;4.87;83.74;101756.66;4984938;28;20287;-62
2022/01/28 08:59:14;;;;;;;15.23;2.70;;;;;;;5.05;83.26;101760.78;4987740;28;20652;-62
2022/01/28 09:01:39;;;;;;;12.00;2.40;;;;;;;5.05;82.51;101768.44;4995890;28;20282;-63
2022/01/28 09:04:05;;;;;;;11.10;3.07;;;;;;;4.77;81.73;101768.56;5021539;28;20233;-61
2022/01/28 09:06:30;;;;;;;9.87;2.50;;;;;;;4.73;82.25;101772.00;5017679;28;20234;-60
2022/01/28 09:08:59;;;;;;;11.30;2.47;;;;;;;4.65;81.24;101769.44;5004031;28;20198;-60
2022/01/28 09:13:52;;;;;;;10.57;2.90;;;;;;;5.33;78.95;101770.03;5014664;28;20240;-61
2022/01/28 09:16:18;;;;;;;7.50;2.23;;;;;;;5.53;77.95;101781.78;5017051;28;20670;-62
2022/01/28 09:18:43;;;;;;;13.97;3.70;;;;;;;5.80;75.75;101775.66;5020193;28;20196;-62
2022/01/28 09:21:09;;;;;;;9.13;2.80;;;;;;;6.10;75.07;101775.44;4982673;28;20225;-61
2022/01/28 09:23:34;;;;;;;10.07;2.27;;;;;;;6.14;74.45;101780.50;5012907;28;20307;-62
2022/01/28 09:26:01;;;;;;;10.17;3.03;;;;;;;5.91;74.85;101779.81;5016446;28;20300;-62
2022/01/28 09:28:26;;;;;;;8.17;2.57;;;;;;;5.98;75.31;101787.44;5018195;28;20196;-62
2022/01/28 09:30:52;;;;;;;7.63;2.37;;;;;;;6.01;75.47;101790.84;5008906;28;20809;-61
2022/01/28 09:33:18;;;;;;;10.70;2.23;;;;;;;5.92;74.37;101787.47;5019547;28;20178;-62
2022/01/28 09:35:44;;;;;;;9.60;2.93;;;;;;;5.77;74.24;101785.88;4994197;28;20292;-62
2022/01/28 09:38:10;;;;;;;11.23;2.93;;;;;;;5.75;74.29;101789.31;5016766;28;20186;-62
2022/01/28 09:40:36;;;;;;;9.70;2.53;;;;;;;5.55;74.03;101787.72;5008810;28;20244;-61
2022/01/28 09:43:04;;;;;;;10.23;2.33;;;;;;;5.72;74.92;101791.88;4997360;28;20190;-61
2022/01/28 09:45:30;;;;;;;11.27;3.03;;;;;;;5.74;76.29;101798.69;5010084;28;20179;-61
2022/01/28 09:47:56;;;;;;;10.30;2.80;;;;;;;5.69;76.19;101800.41;5012962;28;20178;-61
2022/01/28 09:50:26;;;;;;;10.43;2.67;;;;;;;5.79;75.47;101802.06;5004145;28;20702;-61
2022/01/28 09:52:53;;;;;;;6.17;2.13;;;;;;;5.91;75.17;101800.25;5006181;28;20199;-60
2022/01/28 09:55:19;;;;;;;7.63;2.07;;;;;;;6.20;75.49;101805.16;5020436;28;20206;-62
2022/01/28 09:57:50;;;;;;;7.90;2.80;;;;;;;6.10;74.82;101806.94;5032228;28;20193;-62
2022/01/28 10:00:15;;;;;;;9.93;2.23;;;;;;;5.76;75.71;101808.88;4988934;28;20203;-62
2022/01/28 10:02:46;;;;;;;10.90;3.13;;;;;;;5.78;77.21;101808.00;5012123;28;20278;-62
2022/01/28 10:05:25;;;;;;;15.83;3.60;;;;;;;5.48;79.88;101825.22;5012218;28;20188;-62
2022/01/28 10:08:00;;;;;;;6.83;2.40;;;;;;;5.28;80.65;101825.34;5001539;28;20692;-62
2022/01/28 10:10:25;;;;;;;6.47;1.97;;;;;;;5.54;82.36;101826.88;4999981;28;20234;-62
2022/01/28 10:13:12;;;;;;;12.33;2.50;;;;;;;5.45;81.83;101835.44;5010188;28;20262;-61
2022/01/28 10:15:53;;;;;;;6.13;2.17;;;;;;;5.50;82.10;101838.81;5020123;28;20238;-62
2022/01/28 10:18:19;;;;;;;8.57;2.50;;;;;;;5.62;84.23;101837.91;5018719;28;20180;-61
2022/01/28 10:20:44;;;;;;;11.33;3.60;;;;;;;6.00;83.86;101837.69;5000128;28;20291;-62
2022/01/28 10:23:13;;;;;;;8.27;2.57;;;;;;;6.55;80.94;101831.22;4994471;28;20555;-62
2022/01/28 10:25:41;;;;;;;8.97;2.53;;;;;;;7.60;75.88;101827.41;5001970;28;20245;-62
2022/01/28 10:28:11;;;;;;;15.27;3.07;;;;;;;7.74;72.81;101819.53;5002063;28;20179;-61
2022/01/28 10:30:42;;;;;;;9.60;2.70;;;;;;;7.34;73.21;101826.06;4990513;28;20233;-61
2022/01/28 10:33:21;;;;;;;10.83;3.03;;;;;;;7.15;73.38;101822.91;5000787;28;20178;-61
2022/01/28 10:35:55;;;;;;;12.77;2.57;;;;;;;6.84;75.02;101832.66;4990910;28;20293;-62
2022/01/28 10:38:34;;;;;;;6.97;2.50;;;;;;;6.92;74.79;101825.72;4992887;28;20183;-61
2022/01/28 10:41:20;;;;;;;8.47;2.73;;;;;;;6.76;74.69;101832.72;4989242;28;20242;-62
2022/01/28 10:43:49;;;;;;;7.57;2.27;;;;;;;6.66;75.21;101816.66;4997869;28;20345;-62
2022/01/28 10:46:22;;;;;;;9.60;3.20;;;;;;;6.57;75.03;101814.19;4992670;28;20195;-62
2022/01/28 10:48:50;;;;;;;7.67;3.20;;;;;;;6.69;74.40;101814.03;4992595;28;20582;-61
2022/01/28 10:51:18;;;;;;;13.03;2.47;;;;;;;6.64;72.69;101813.25;4996174;28;20423;-63
2022/01/28 10:54:01;;;;;;;7.43;2.90;;;;;;;6.66;71.46;101815.78;4999159;28;20262;-62
2022/01/28 10:56:26;;;;;;;8.27;2.63;;;;;;;6.76;70.11;101819.94;4992635;28;20659;-62
2022/01/28 10:58:52;;;;;;;9.47;3.00;;;;;;;6.66;69.77;101816.66;5012074;28;20277;-63
2022/01/28 11:01:18;;;;;;;10.87;2.53;;;;;;;6.80;71.43;101813.94;5020187;28;20256;-61
2022/01/28 11:03:43;;;;;;;11.73;2.87;;;;;;;6.78;70.56;101819.06;5024324;28;20256;-62
2022/01/28 11:06:09;;;;;;;11.67;2.40;;;;;;;6.66;70.03;101811.53;5008434;28;20301;-61
2022/01/28 11:08:34;;;;;;;9.33;2.80;;;;;;;6.25;69.25;101802.56;5017747;28;20194;-61
2022/01/28 11:11:00;;;;;;;8.70;2.73;;;;;;;6.20;69.78;101807.72;5005626;28;20827;-61
2022/01/28 11:13:27;;;;;;;10.93;2.60;;;;;;;6.19;68.47;101800.91;5025502;28;20188;-62
2022/01/28 11:15:53;;;;;;;8.97;2.20;;;;;;;6.23;68.46;101801.72;5009835;28;20567;-61
2022/01/28 11:18:20;;;;;;;11.20;2.83;;;;;;;6.42;67.66;101810.91;5009651;28;20181;-62
2022/01/28 11:21:04;;;;;;;8.53;2.47;;;;;;;6.40;68.76;101812.66;5005131;28;20245;-62
2022/01/28 11:23:51;;;;;;;11.30;3.07;;;;;;;6.63;67.85;101817.50;4990627;28;20184;-61
2022/01/28 11:26:28;;;;;;;5.67;1.90;;;;;;;6.47;66.95;101823.66;5008592;28;20201;-61
2022/01/28 11:28:57;;;;;;;12.03;2.40;;;;;;;6.36;68.90;101818.63;5006536;28;20224;-62
2022/01/28 11:31:49;;;;;;;12.17;2.73;;;;;;;6.37;69.30;101822.88;5006866;28;20232;-61
2022/01/28 11:34:28;;;;;;;10.53;2.67;;;;;;;6.23;69.54;101823.00;4991678;28;20191;-61
2022/01/28 11:37:03;;;;;;;9.80;2.67;;;;;;;6.16;72.21;101829.03;4999649;28;20226;-63
2022/01/28 11:39:37;;;;;;;8.17;2.20;;;;;;;6.10;72.56;101829.09;5020166;28;20200;-62
2022/01/28 11:42:03;;;;;;;9.37;2.53;;;;;;;6.05;72.12;101839.31;5008915;28;20231;-62
2022/01/28 11:44:49;;;;;;;8.77;2.60;;;;;;;5.88;73.14;101833.47;5000701;28;20189;-63
2022/01/28 11:47:27;;;;;;;8.00;3.03;;;;;;;5.84;71.62;101830.09;4997476;28;20205;-62
2022/01/28 11:50:05;;;;;;;11.63;2.70;;;;;;;5.82;69.02;101824.16;5007947;28;20284;-62
2022/01/28 11:52:43;;;;;;;13.00;2.90;;;;;;;5.80;68.02;101808.88;4964690;28;20217;-60
2022/01/28 11:55:14;;;;;;;15.23;3.17;;;;;;;5.85;68.22;101813.06;4991345;28;20180;-61
2022/01/28 11:58:03;;;;;;;10.20;2.60;;;;;;;5.91;67.48;101797.72;5007330;28;20195;-62
2022/01/28 12:00:40;;;;;;;9.73;2.97;;;;;;;5.92;67.13;101807.91;4988143;28;20244;-61
2022/01/28 12:03:18;;;;;;;9.37;2.70;;;;;;;6.00;67.23;101814.69;4998812;28;20196;-62
2022/01/28 12:05:43;;;;;;;10.17;2.50;;;;;;;6.12;66.89;101807.75;5007880;28;20320;-63
2022/01/28 12:08:10;;;;;;;10.07;3.13;;;;;;;6.27;67.27;101816.16;5008477;28;20292;-62
2022/01/28 12:10:42;;;;;;;11.00;3.10;;;;;;;6.44;66.94;101800.69;5000206;28;20227;-62
2022/01/28 12:13:12;;;;;;;7.97;3.33;;;;;;;6.65;67.12;101814.97;5009753;28;20180;-58
2022/01/28 12:16:04;;;;;;;70.00;35.70;;;;;;;7.37;63.88;101802.16;4986658;28;20250;-61
2022/01/28 12:18:45;;;;;;;19.10;8.90;;;;;;;7.71;61.98;101797.34;5005453;28;20188;-60
2022/01/28 12:21:31;;;;;;;11.93;4.90;;;;;;;7.99;60.23;101807.19;4989497;28;20376;-59
2022/01/28 12:24:15;;;;;;;16.63;8.33;;;;;;;7.93;58.63;101809.84;4987176;28;20183;-58
2022/01/28 12:27:07;;;;;;;26.73;10.93;;;;;;;8.27;58.31;101813.56;4992395;28;20203;-61
2022/01/28 12:29:47;;;;;;;19.30;5.87;;;;;;;7.89;56.42;101808.22;4995970;28;20199;-59
2022/01/28 12:32:19;;;;;;;156.33;80.33;;;;;;;7.72;58.35;101804.19;4964897;28;20674;-58
2022/01/28 12:34:46;;;;;;;14.53;5.77;;;;;;;8.12;54.87;101805.25;5017748;28;20221;-59
2022/01/28 12:37:13;;;;;;;24.43;11.03;;;;;;;8.35;54.20;101804.03;4999403;28;20186;-58
2022/01/28 12:39:44;;;;;;;20.63;5.53;;;;;;;8.15;52.89;101800.09;5008482;28;20231;-57
2022/01/28 12:42:33;;;;;;;21.93;10.67;;;;;;;8.13;53.53;101803.56;4999138;28;20675;-58
2022/01/28 12:44:57;;;;;;;16.63;7.70;;;;;;;8.09;53.09;101807.88;5016805;28;20198;-60
2022/01/28 12:47:24;;;;;;;19.27;10.33;;;;;;;8.21;52.82;101806.81;5021284;28;20202;-61
2022/01/28 12:50:03;;;;;;;30.50;12.87;;;;;;;8.12;53.79;101804.41;5009428;28;20534;-62
2022/01/28 12:52:30;;;;;;;20.67;10.40;;;;;;;8.14;54.50;101803.53;4982362;28;20232;-62
2022/01/28 12:54:55;;;;;;;10.33;3.43;;;;;;;8.27;53.24;101800.75;5001157;28;236014;-62
2022/01/28 12:57:21;;;;;;;7.00;2.43;;;;;;;8.17;55.07;101803.44;5005896;28;20198;-63
2022/01/28 12:59:48;;;;;;;13.30;2.93;;;;;;;8.27;54.45;101805.88;4990619;28;20205;-62
2022/01/28 13:02:15;;;;;;;11.57;2.57;;;;;;;8.16;54.03;101812.03;4994205;28;20723;-63
2022/01/28 13:10:31;;;;;;;8.70;2.73;;;;;;;7.99;54.21;101799.50;5008825;28;20732;-61
2022/01/28 13:13:22;;;;;;;11.57;3.27;;;;;;;8.12;53.86;101801.84;5018542;28;20179;-62